Date,TemperatureHighF,TemperatureAvgF,TemperatureLowF,DewpointHighF,DewpointAvgF,DewpointLowF,HumidityHigh,HumidityAvg,HumidityLow,PressureMaxIn,PressureMinIn,WindSpeedMaxMPH,WindSpeedAvgMPH,GustSpeedMaxMPH,PrecipitationSumIn
2013-1-1,29.7,15.9,0.5,14.8,4.2,-5.8,86,61,41,30.58,30.38,12,0,12,0.00
2013-1-2,31.5,24.3,15.1,6.9,1.3,-5.4,57,37,26,30.45,30.26,25,2,25,0.00
2013-1-3,26.0,21.9,15.1,5.0,-0.4,-8.4,50,38,26,30.52,30.32,27,4,27,0.00
2013-1-4,36.8,22.6,9.5,-0.9,-6.2,-13.6,54,30,11,30.61,30.33,11,0,11,0.00
2013-1-5,44.7,25.8,7.6,8.6,-1.7,-9.8,59,33,15,30.72,30.28,9,0,10,0.00
2013-1-6,44.3,30.3,25.2,10.8,5.6,-2.9,49,35,21,30.33,30.01,13,1,13,0.00
2013-1-7,36.8,29.2,22.3,11.5,7.9,1.3,51,41,26,30.19,29.97,16,2,16,0.00
2013-1-8,46.6,29.8,13.0,19.8,11.9,-0.6,70,49,27,30.46,30.15,11,0,11,0.00
2013-1-9,49.8,36.9,26.8,20.4,17.2,10.1,69,46,26,30.41,30.07,24,2,24,0.00
2013-1-10,39.1,32.8,18.6,23.6,16.5,10.2,89,53,34,30.07,29.67,27,5,27,0.00
2013-1-11,20.4,14.6,-0.8,15.1,5.4,-7.2,86,68,44,30.29,29.73,18,2,18,0.00
2013-1-12,20.2,10.1,-2.6,8.4,-0.1,-8.6,83,64,37,30.35,30.19,13,0,13,0.00
2013-1-13,19.1,9.1,-4.1,3.0,-2.1,-10.9,84,61,42,30.36,30.21,13,1,13,0.00
2013-1-14,16.4,8.7,-5.0,2.2,-3.2,-12.3,79,59,35,30.62,30.22,12,1,12,0.00
2013-1-15,24.4,9.0,-7.7,4.1,-5.2,-14.6,80,55,28,30.84,30.60,10,0,10,0.00
2013-1-16,37.7,25.5,8.3,14.7,8.4,0.2,74,49,31,30.75,30.40,20,1,20,0.00
2013-1-17,38.4,33.1,28.6,13.6,9.7,7.3,45,37,28,30.51,30.38,22,4,22,0.00
2013-1-18,39.0,31.8,25.8,15.1,12.6,10.4,61,45,34,30.47,30.34,16,2,16,0.00
2013-1-19,43.8,37.6,30.0,13.4,6.8,-4.7,49,29,15,30.43,30.32,20,3,20,0.00
2013-1-20,48.2,37.1,26.3,11.9,4.2,-2.8,39,25,15,30.40,30.20,16,1,16,0.00
2013-1-21,44.0,39.0,32.3,6.5,-0.7,-5.2,27,18,13,30.35,30.19,19,4,19,0.00
2013-1-22,57.4,41.0,25.2,16.1,4.9,-5.7,62,26,11,30.42,30.17,12,1,13,0.00
2013-1-23,55.5,38.2,22.3,20.1,11.8,2.5,57,36,14,30.57,30.16,10,0,10,0.00
2013-1-24,46.7,40.5,37.8,36.6,29.0,18.3,93,67,38,30.27,30.16,17,0,17,0.00
2013-1-25,46.4,40.4,37.7,40.6,37.1,34.7,94,88,76,30.28,30.08,6,0,6,0.00
2013-1-26,41.4,38.7,36.4,39.8,36.9,34.4,94,93,90,30.08,29.81,17,1,17,0.00
2013-1-27,43.4,37.4,31.5,36.6,33.5,26.5,94,86,63,29.96,29.80,24,4,24,0.00
2013-1-28,31.7,25.2,16.7,29.4,22.1,9.9,93,88,73,30.10,29.78,19,2,19,0.00
2013-1-29,26.5,21.2,14.8,19.9,13.0,6.7,80,70,53,30.35,30.08,21,2,21,0.00
2013-1-30,37.8,28.3,13.1,24.2,17.0,6.7,80,63,47,30.47,30.31,19,1,19,0.00
2013-1-31,46.3,32.0,19.1,26.6,19.9,10.9,90,65,24,30.49,30.26,6,0,8,0.00
2013-2-1,48.8,32.1,17.5,28.8,15.7,4.4,92,58,17,30.53,30.30,8,0,8,0.00
2013-2-2,50.0,38.3,24.6,23.3,18.1,11.1,73,45,28,30.47,30.25,13,0,13,0.00
2013-2-3,41.0,34.6,25.9,33.4,25.7,15.6,90,71,46,30.26,30.09,10,0,10,0.00
2013-2-4,48.5,33.9,22.1,30.3,18.9,4.5,92,62,17,30.32,30.13,8,0,9,0.00
2013-2-5,53.0,36.2,22.0,22.3,18.5,11.8,85,55,20,30.30,29.92,8,0,8,0.00
2013-2-6,47.8,37.9,28.6,28.7,24.0,19.1,77,58,37,30.11,29.88,16,0,16,0.00
2013-2-7,49.7,36.4,24.9,26.0,21.5,16.6,86,58,29,30.21,29.91,12,0,12,0.00
2013-2-8,39.4,32.5,25.2,27.2,19.1,3.1,79,60,22,29.93,29.70,30,3,34,0.00
2013-2-9,26.3,23.3,21.5,21.0,19.2,16.3,89,84,69,30.06,29.69,17,2,17,0.00
2013-2-10,22.9,19.9,13.8,19.6,16.7,9.9,89,87,84,30.17,30.01,16,1,16,0.00
2013-2-11,26.9,16.7,3.2,21.3,12.0,-2.1,87,81,70,30.37,30.15,7,0,7,0.00
2013-2-12,31.4,19.4,0.9,17.5,9.2,-4.7,87,66,45,30.56,30.31,7,0,7,0.00
2013-2-13,39.7,25.0,10.6,19.2,13.7,5.7,86,65,38,30.47,30.31,11,0,11,0.00
2013-2-14,41.7,28.0,14.8,24.4,16.3,10.4,88,65,37,30.47,30.29,13,0,13,0.00
2013-2-15,46.3,30.1,14.5,17.3,9.7,2.0,88,50,17,30.64,30.39,11,0,11,0.00
2013-2-16,53.7,35.5,15.6,18.8,7.6,-3.4,79,39,10,30.67,30.03,7,0,7,0.00
2013-2-17,50.0,39.4,26.6,10.7,5.4,-3.4,45,25,15,30.06,29.76,22,2,22,0.00
2013-2-18,45.4,32.9,18.2,19.6,13.2,5.7,83,46,24,30.20,29.94,13,0,13,0.00
2013-2-19,45.9,35.0,22.6,16.0,11.6,7.6,71,39,23,30.01,29.58,21,2,21,0.00
2013-2-20,33.6,27.4,22.4,24.4,19.8,13.4,89,74,46,29.87,29.53,17,2,17,0.00
2013-2-21,29.6,25.5,21.8,24.0,21.2,15.7,90,84,70,30.10,29.84,14,2,14,0.00
2013-2-22,33.4,24.3,12.5,16.3,10.5,2.3,86,58,36,30.32,30.10,13,1,13,0.00
2013-2-23,44.4,28.8,17.1,18.8,12.3,8.4,74,51,28,30.28,29.83,26,3,26,0.00
2013-2-24,30.6,23.4,16.9,11.7,2.4,-4.5,59,40,28,30.28,29.89,22,2,22,0.00
2013-2-25,43.3,26.9,8.1,10.0,4.1,-4.9,84,44,16,30.44,30.05,12,1,12,0.00
2013-2-26,36.0,29.2,23.8,6.7,1.0,-6.2,44,30,19,30.30,29.98,19,1,19,0.00
2013-2-27,35.7,24.7,12.8,9.1,1.5,-4.3,67,39,20,30.52,30.30,13,0,13,0.00
2013-2-28,42.5,28.2,11.9,12.8,4.1,-2.2,73,40,16,30.60,30.49,7,0,11,0.00
2013-3-1,52.8,36.9,20.5,20.7,17.0,8.3,77,48,24,30.66,30.38,12,0,12,0.00
2013-3-2,59.4,41.8,23.8,25.3,19.7,12.7,82,47,20,30.58,30.11,10,0,10,0.00
2013-3-3,54.4,42.7,29.5,29.0,21.9,18.0,67,45,27,30.15,29.82,22,2,24,0.00
2013-3-4,50.6,40.6,27.1,28.3,23.0,19.9,77,50,36,30.20,29.81,14,1,14,0.00
2013-3-5,56.1,40.3,24.9,21.2,19.1,15.8,82,47,23,30.28,29.99,17,1,17,0.00
2013-3-6,56.5,43.2,33.7,28.3,20.2,11.3,63,42,18,30.07,29.86,22,3,22,0.00
2013-3-7,55.3,42.0,30.2,23.0,17.9,9.1,70,42,16,29.98,29.82,27,3,27,0.00
2013-3-8,41.7,31.7,24.0,32.8,26.6,20.3,92,83,51,29.86,29.70,21,2,21,0.00
2013-3-9,32.3,27.8,24.0,28.4,24.8,21.5,91,88,84,30.25,29.84,19,3,19,0.00
2013-3-10,44.0,30.3,15.4,28.9,20.8,11.4,89,70,36,30.41,30.24,10,0,10,0.00
2013-3-11,52.7,36.7,20.2,24.9,18.9,8.9,89,55,21,30.42,30.12,11,0,11,0.00
2013-3-12,55.5,41.5,25.8,25.8,22.0,19.0,83,50,25,30.28,30.17,12,0,12,0.00
2013-3-13,60.4,45.5,27.5,26.8,22.8,13.0,82,46,17,30.40,30.18,13,0,13,0.00
2013-3-14,65.5,53.0,40.5,23.9,17.5,11.9,43,26,15,30.32,30.05,12,1,14,0.00
2013-3-15,69.3,52.6,33.4,31.0,21.1,14.5,66,32,13,30.18,29.85,15,1,17,0.00
2013-3-16,62.2,50.5,38.1,27.4,21.6,10.4,54,33,20,29.92,29.75,17,1,19,0.00
2013-3-17,59.1,48.5,35.7,23.9,9.5,-6.9,61,24,9,29.90,29.69,22,2,27,0.00
2013-3-18,55.3,46.4,34.0,10.6,4.6,-3.6,30,18,12,29.99,29.78,17,1,17,0.00
2013-3-19,55.9,46.2,36.4,25.5,14.6,2.7,48,29,17,30.10,29.91,10,0,11,0.00
2013-3-20,56.8,47.2,39.8,27.0,22.1,17.6,52,38,25,30.06,29.76,24,3,24,0.00
2013-3-21,56.4,46.5,33.3,29.4,19.1,9.5,67,37,17,29.82,29.73,18,1,18,0.00
2013-3-22,55.9,42.0,26.8,20.2,3.7,-20.3,65,28,5,29.83,29.70,25,2,27,0.00
2013-3-23,41.3,32.5,22.0,5.8,-2.6,-14.2,45,23,9,30.23,29.70,24,2,24,0.00
2013-3-24,47.5,33.3,15.8,7.8,1.4,-5.3,60,30,12,30.28,30.03,20,1,20,0.00
2013-3-25,53.7,41.0,26.6,19.2,7.7,-1.6,47,26,18,30.16,29.99,11,0,11,0.00
2013-3-26,59.7,46.8,29.7,16.5,12.7,8.2,51,26,16,30.04,29.80,29,3,29,0.00
2013-3-27,60.4,47.0,30.5,20.5,14.0,8.9,53,28,14,30.01,29.86,19,2,19,0.00
2013-3-28,60.9,46.7,30.5,24.5,19.3,15.1,57,35,21,30.10,29.96,20,2,20,0.00
2013-3-29,62.2,48.8,34.0,28.5,24.8,21.0,67,42,21,30.17,30.00,11,0,11,0.00
2013-3-30,60.9,46.6,31.4,33.8,26.1,22.1,77,49,24,30.17,30.00,11,0,11,0.00
2013-3-31,62.9,49.6,31.2,29.2,24.8,19.5,79,42,20,30.12,29.83,11,1,18,0.00
2013-4-1,57.8,46.4,36.7,31.4,20.8,2.1,74,41,11,29.94,29.83,24,3,24,0.00
2013-4-2,52.4,42.2,29.3,27.2,24.1,17.5,75,50,36,30.02,29.87,16,1,16,0.00
2013-4-3,60.0,44.9,26.9,29.2,21.4,13.5,84,44,20,30.17,30.00,12,0,13,0.00
2013-4-4,66.5,50.1,28.9,20.4,17.0,11.8,63,32,13,30.20,29.87,16,1,18,0.00
2013-4-5,65.8,53.0,41.1,28.8,20.4,12.0,46,29,13,29.91,29.75,24,2,24,0.00
2013-4-6,64.9,51.6,35.8,29.5,24.0,18.7,67,36,19,29.95,29.78,18,1,20,0.00
2013-4-7,63.7,50.8,35.4,25.8,19.8,8.9,57,32,13,29.89,29.58,17,1,17,0.00
2013-4-8,49.4,38.5,29.9,33.0,28.5,22.9,92,70,38,29.59,29.24,32,5,33,0.11
2013-4-9,41.4,33.9,30.2,26.4,20.8,15.1,81,60,41,29.98,29.55,17,2,21,0.02
2013-4-10,47.9,38.2,25.9,22.3,15.9,11.3,70,43,24,30.13,29.97,19,1,19,0.00
2013-4-11,56.1,45.3,34.2,24.8,21.2,17.1,57,40,24,30.02,29.78,13,0,13,0.00
2013-4-12,60.1,45.8,28.0,29.1,20.6,9.6,79,41,15,29.92,29.74,13,0,13,0.00
2013-4-13,65.7,50.5,30.8,24.8,20.0,14.6,64,33,15,29.89,29.54,26,5,28,0.00
2013-4-14,66.6,52.9,40.1,27.6,24.9,21.4,52,35,19,29.63,29.47,27,6,27,0.00
2013-4-15,61.1,49.5,40.3,31.3,26.9,17.8,63,43,20,29.59,29.44,32,8,32,0.00
2013-4-16,51.9,41.5,30.0,33.9,23.7,4.9,74,52,23,29.80,29.44,31,7,31,0.00
2013-4-17,41.0,33.0,24.6,24.2,15.2,2.6,87,51,28,30.17,29.76,20,2,20,0.00
2013-4-18,46.3,34.8,25.0,14.4,5.0,0.2,46,29,17,30.38,30.16,12,0,12,0.00
2013-4-19,56.7,41.1,20.1,13.1,8.3,2.6,56,28,15,30.39,29.96,11,0,13,0.00
2013-4-20,59.2,45.8,27.7,18.5,13.1,8.4,49,28,15,30.07,29.93,19,1,19,0.00
2013-4-21,67.8,50.7,27.8,23.1,16.4,9.8,67,31,12,30.16,29.85,19,1,20,0.00
2013-4-22,71.7,56.4,38.1,21.9,15.0,8.3,33,20,11,29.93,29.63,26,3,26,0.00
2013-4-23,57.1,47.8,30.5,19.2,10.8,-5.0,35,23,13,30.06,29.63,13,1,13,0.00
2013-4-24,61.7,48.3,25.2,7.4,-0.5,-11.0,33,14,8,30.06,29.84,16,1,16,0.00
2013-4-25,60.4,50.7,39.4,21.6,12.1,-0.9,43,22,13,30.00,29.80,18,0,20,0.00
2013-4-26,65.4,52.3,37.0,28.4,16.2,3.4,63,29,9,30.15,30.00,16,0,16,0.00
2013-4-27,67.8,51.9,32.3,18.3,8.3,0.3,42,20,9,30.22,29.92,14,0,14,0.00
2013-4-28,72.7,55.8,32.0,22.0,12.0,4.8,44,20,10,30.07,29.72,12,0,12,0.00
2013-4-29,77.8,63.3,41.7,28.0,14.8,9.2,39,17,8,29.84,29.52,17,1,17,0.00
2013-4-30,74.9,61.5,49.3,23.1,12.6,6.7,28,16,7,29.63,29.53,25,5,27,0.00
2013-5-1,64.7,54.3,37.5,21.7,5.3,-13.6,35,16,5,30.20,29.57,17,2,18,0.00
2013-5-2,55.5,45.4,35.5,11.0,4.1,-3.4,28,19,12,30.42,30.18,26,3,26,0.00
2013-5-3,65.2,51.9,38.1,5.9,1.0,-3.0,21,13,7,30.24,29.81,17,1,18,0.00
2013-5-4,71.0,56.6,35.2,10.6,5.4,-0.9,26,14,7,29.85,29.61,18,2,20,0.00
2013-5-5,62.2,52.7,44.4,30.9,18.1,8.2,46,26,17,29.88,29.62,27,1,27,0.00
2013-5-6,59.7,49.8,43.4,39.3,27.7,14.8,66,43,26,29.91,29.76,26,3,26,0.01
2013-5-7,56.2,43.8,32.9,39.9,32.1,22.2,92,66,28,29.99,29.80,22,2,22,0.12
2013-5-8,54.1,42.2,30.3,37.8,31.0,27.0,92,67,38,30.13,29.94,12,0,12,0.01
2013-5-9,60.0,47.0,33.3,41.2,31.3,23.8,87,59,27,30.05,29.94,16,0,16,0.03
2013-5-10,65.8,53.0,37.4,38.7,32.7,23.0,87,50,24,30.12,29.98,16,1,16,0.00
2013-5-11,66.5,52.7,36.2,37.6,29.8,24.7,83,46,22,30.22,30.06,22,1,22,0.00
2013-5-12,73.9,59.7,37.4,34.0,23.6,16.2,62,29,13,30.22,29.91,12,0,12,0.00
2013-5-13,79.4,65.5,41.8,26.2,20.0,14.9,44,19,11,30.08,29.77,17,0,17,0.00
2013-5-14,79.8,65.1,47.5,26.6,22.5,15.9,34,21,12,29.90,29.71,19,1,22,0.00
2013-5-15,75.8,63.0,48.1,24.4,16.5,6.2,37,18,8,29.80,29.67,24,4,28,0.00
2013-5-16,76.2,62.4,49.8,24.3,16.4,7.9,26,17,9,29.79,29.64,24,3,24,0.00
2013-5-17,68.5,57.4,47.8,26.4,22.0,16.7,35,26,14,29.80,29.65,32,4,32,0.00
2013-5-18,65.8,54.3,38.7,30.3,26.6,23.3,59,36,23,29.88,29.76,16,1,16,0.00
2013-5-19,56.8,47.7,40.7,26.9,23.8,19.5,55,40,25,29.87,29.75,16,1,16,0.00
2013-5-20,64.9,53.9,41.4,28.0,24.4,19.3,52,33,19,29.92,29.81,18,1,18,0.00
2013-5-21,73.2,58.4,34.3,31.4,20.5,4.2,67,28,7,29.98,29.64,18,1,18,0.00
2013-5-22,75.1,62.8,49.1,25.1,17.6,12.4,26,18,10,29.69,29.52,30,5,30,0.00
2013-5-23,73.7,61.4,48.2,26.1,17.6,7.7,39,20,8,29.74,29.51,30,5,32,0.00
2013-5-24,73.9,58.8,38.5,18.1,10.9,3.2,28,16,7,29.89,29.73,22,3,22,0.00
2013-5-25,74.9,61.8,47.9,22.0,13.2,4.4,35,16,7,29.82,29.74,24,3,24,0.00
2013-5-26,74.1,59.6,41.1,19.7,14.9,10.6,35,18,11,29.86,29.73,21,3,21,0.00
2013-5-27,75.1,61.6,47.6,24.1,16.3,11.9,28,18,9,29.83,29.60,18,1,18,0.00
2013-5-28,71.5,59.7,44.7,28.9,23.2,17.4,36,25,18,29.64,29.48,28,3,28,0.00
2013-5-29,71.5,59.2,44.8,31.6,23.2,14.9,55,27,14,29.65,29.56,24,2,24,0.00
2013-5-30,77.9,63.7,46.0,33.2,24.4,15.4,49,25,10,29.71,29.61,26,2,26,0.00
2013-5-31,76.9,64.8,48.5,40.0,23.0,0.9,65,26,7,29.82,29.65,17,1,17,0.00
2013-6-1,77.4,64.9,47.2,9.4,5.0,-0.1,19,10,6,29.91,29.74,18,1,18,0.00
2013-6-2,82.4,71.2,56.7,24.9,16.2,8.0,27,13,8,29.77,29.50,19,2,19,0.00
2013-6-3,82.0,67.8,48.5,31.4,24.4,17.7,46,22,10,29.71,29.61,19,1,19,0.00
2013-6-4,81.8,66.9,45.1,26.9,18.5,10.2,42,18,7,29.79,29.63,20,2,20,0.00
2013-6-5,82.6,68.8,49.8,26.3,20.8,14.3,34,18,8,29.81,29.63,16,1,16,0.00
2013-6-6,85.5,71.8,48.2,26.0,17.3,11.0,30,14,7,29.81,29.57,14,1,14,0.00
2013-6-7,86.5,71.2,49.8,24.1,17.3,10.7,28,14,6,29.78,29.52,20,1,20,0.00
2013-6-8,89.2,74.2,50.9,27.5,20.8,15.2,28,15,8,29.70,29.52,17,1,17,0.00
2013-6-9,91.6,76.4,55.2,30.3,21.6,15.7,28,14,7,29.74,29.54,17,1,17,0.00
2013-6-10,86.1,73.1,59.5,19.1,9.8,-0.8,17,10,4,29.73,29.59,27,4,27,0.00
2013-6-11,85.3,71.2,56.4,27.4,20.5,13.1,31,16,7,29.80,29.64,20,3,20,0.00
2013-6-12,86.3,71.9,51.6,26.0,23.2,18.0,33,18,9,29.86,29.68,19,1,19,0.00
2013-6-13,84.3,71.3,58.5,36.7,25.1,14.3,31,19,9,29.80,29.65,28,3,29,0.00
2013-6-14,84.3,69.0,48.1,26.2,18.8,8.0,32,17,6,29.80,29.62,22,2,22,0.00
2013-6-15,83.6,69.2,58.0,36.6,27.7,23.9,32,22,12,29.77,29.66,27,3,27,0.00
2013-6-16,84.0,70.3,56.7,27.5,21.1,11.9,28,17,7,29.84,29.70,24,2,24,0.00
2013-6-17,84.0,69.7,47.5,24.9,11.1,-9.4,30,12,3,29.89,29.65,19,2,19,0.00
2013-6-18,84.7,68.2,45.1,16.9,9.8,1.1,24,11,5,29.82,29.56,24,3,24,0.00
2013-6-19,81.3,68.9,56.7,20.2,12.9,7.7,18,12,7,29.63,29.53,27,4,27,0.00
2013-6-20,81.8,66.3,44.0,19.0,13.9,7.7,30,15,7,29.74,29.60,26,4,27,0.00
2013-6-21,80.0,67.0,44.5,21.9,16.0,12.2,31,15,8,29.79,29.60,25,4,25,0.00
2013-6-22,81.4,67.1,45.6,22.0,18.3,14.4,31,16,9,29.75,29.61,21,2,21,0.00
2013-6-23,80.9,67.1,45.3,22.8,17.1,11.0,34,16,8,29.76,29.54,21,3,21,0.00
2013-6-24,75.6,66.1,54.4,31.9,22.5,13.5,34,20,11,29.70,29.54,25,5,25,0.00
2013-6-25,81.6,70.2,61.8,29.0,27.7,26.0,26,21,13,29.81,29.72,13,1,13,0.00
2013-6-26,87.8,72.9,53.8,31.6,25.3,20.4,30,18,9,29.89,29.74,19,1,19,0.00
2013-6-27,90.9,76.8,59.1,38.2,30.9,21.8,40,21,9,29.91,29.75,7,0,12,0.00
2013-6-28,94.5,80.1,57.7,38.1,29.4,20.6,40,18,8,29.86,29.62,13,0,13,0.00
2013-6-29,94.2,78.7,58.9,37.4,30.5,27.4,32,19,10,29.82,29.58,16,1,16,0.00
2013-6-30,94.0,78.1,58.8,35.8,30.5,24.6,36,20,9,29.76,29.56,8,0,12,0.00
2013-7-1,91.6,78.1,61.7,44.2,35.2,22.9,40,23,9,29.75,29.62,13,1,13,0.00
2013-7-2,88.0,76.1,62.2,54.5,41.8,28.1,76,32,15,29.79,29.61,21,2,21,0.08
2013-7-3,92.5,75.3,60.1,49.6,42.4,29.2,58,34,11,29.79,29.56,21,1,21,0.00
2013-7-4,91.6,78.3,63.1,46.3,39.1,34.3,49,26,14,29.68,29.51,17,1,18,0.00
2013-7-5,87.2,71.6,62.2,50.3,45.2,37.3,57,41,22,29.71,29.55,18,1,18,0.00
2013-7-6,82.8,66.9,57.1,55.2,48.4,43.8,86,53,28,29.83,29.62,17,1,18,0.06
2013-7-7,82.6,71.0,54.0,48.9,45.5,41.1,76,43,25,29.87,29.61,11,0,11,0.01
2013-7-8,87.6,77.4,60.0,45.3,37.1,29.1,57,26,14,29.83,29.68,13,1,16,0.00
2013-7-9,90.1,78.1,60.4,34.5,27.2,21.5,30,17,10,29.87,29.70,13,0,16,0.00
2013-7-10,85.3,75.8,57.2,44.0,31.6,24.5,40,21,14,29.84,29.65,7,0,11,0.00
2013-7-11,78.5,68.0,57.5,61.7,53.2,43.7,88,61,37,29.80,29.69,21,2,21,0.12
2013-7-12,76.9,65.5,53.5,57.7,50.7,45.3,93,62,33,29.88,29.77,17,1,17,0.00
2013-7-13,78.7,65.6,52.5,61.1,50.7,46.7,89,61,34,30.00,29.76,18,0,18,0.12
2013-7-14,83.6,68.6,56.1,56.3,49.2,42.0,79,54,25,29.93,29.70,16,1,16,0.01
2013-7-15,82.8,65.6,57.1,62.0,52.8,43.9,92,67,27,29.87,29.67,11,0,11,0.66
2013-7-16,79.6,64.1,57.1,58.5,54.4,49.8,90,73,36,29.93,29.72,7,0,8,0.07
2013-7-17,80.3,66.5,53.1,58.5,52.7,45.9,92,65,31,30.04,29.85,12,0,12,0.00
2013-7-18,80.9,66.3,57.4,57.7,53.4,43.5,88,66,28,29.95,29.79,14,0,14,0.08
2013-7-19,83.4,68.9,57.5,57.9,51.5,44.6,89,58,27,29.92,29.70,11,0,14,0.03
2013-7-20,82.8,69.2,59.5,57.3,52.2,43.8,88,58,27,29.83,29.61,16,1,19,0.05
2013-7-21,79.8,71.2,58.0,56.7,53.0,48.0,87,55,38,29.86,29.67,13,1,13,0.11
2013-7-22,74.8,64.5,57.1,59.4,55.7,52.3,91,75,49,29.93,29.75,11,0,11,0.03
2013-7-23,80.7,68.7,57.7,57.2,53.9,47.3,88,62,33,29.89,29.73,11,0,11,0.00
2013-7-24,84.5,71.4,55.0,56.2,50.8,43.1,90,53,25,29.85,29.65,12,0,12,0.00
2013-7-25,85.9,71.4,59.5,55.2,51.9,41.7,77,54,23,29.88,29.70,16,0,16,0.00
2013-7-26,84.9,67.0,58.6,61.4,54.0,49.2,90,66,33,30.04,29.81,25,1,25,0.47
2013-7-27,76.9,62.5,56.5,62.0,55.6,52.2,92,80,44,30.03,29.78,12,0,12,0.25
2013-7-28,72.9,60.0,53.7,60.6,54.4,48.7,93,83,50,29.93,29.76,21,1,21,0.80
2013-7-29,79.0,66.5,52.5,56.0,48.3,41.4,93,57,28,29.95,29.79,20,2,20,0.01
2013-7-30,83.0,69.1,54.6,49.5,43.0,36.4,67,42,19,30.03,29.88,16,1,16,0.00
2013-7-31,83.8,70.6,52.2,51.8,43.8,39.1,75,42,23,30.02,29.78,8,0,13,0.00
2013-8-1,80.7,68.5,59.7,61.1,51.7,44.7,88,58,31,29.86,29.74,20,1,20,0.14
2013-8-2,82.2,69.9,55.8,55.3,47.8,35.1,87,50,22,29.91,29.73,19,1,19,0.00
2013-8-3,84.0,70.7,58.2,50.7,45.7,35.9,72,44,19,29.89,29.77,17,1,17,0.00
2013-8-4,82.6,67.8,53.3,52.7,45.8,40.9,76,48,24,29.93,29.80,17,1,17,0.00
2013-8-5,82.0,69.1,51.3,45.7,37.5,31.5,71,35,17,29.99,29.71,13,0,13,0.00
2013-8-6,72.5,63.8,57.2,51.9,45.7,33.4,81,53,31,29.93,29.73,10,0,10,0.01
2013-8-7,74.2,64.4,56.4,49.5,45.1,41.4,75,51,34,29.98,29.82,10,0,10,0.00
2013-8-8,81.8,67.1,49.1,43.6,31.1,22.2,63,30,12,29.94,29.73,17,1,17,0.00
2013-8-9,80.3,68.3,53.4,31.5,27.1,18.0,42,23,10,29.86,29.75,21,1,21,0.00
2013-8-10,80.1,67.2,53.3,41.8,31.7,26.9,49,28,16,29.94,29.79,10,1,17,0.00
2013-8-11,73.7,64.3,55.9,53.0,45.3,37.0,84,51,29,29.94,29.80,17,1,17,0.15
2013-8-12,79.2,66.9,49.6,49.8,40.6,28.1,85,43,17,29.97,29.76,12,0,12,0.00
2013-8-13,84.3,69.1,47.2,42.3,31.2,23.3,60,28,11,30.00,29.74,13,1,16,0.00
2013-8-14,86.1,69.1,47.9,58.8,33.4,18.4,71,28,15,29.97,29.70,17,1,17,0.03
2013-8-15,81.6,67.1,51.8,48.4,42.4,31.7,57,42,24,29.99,29.82,17,1,19,0.00
2013-8-16,86.3,71.1,53.7,47.8,44.2,37.4,73,41,19,29.98,29.76,13,0,13,0.00
2013-8-17,83.2,65.6,56.8,55.9,47.6,41.6,89,55,25,30.02,29.79,16,1,16,0.32
2013-8-18,80.1,66.0,50.7,51.5,47.7,41.4,90,56,28,30.05,29.81,13,0,14,0.00
2013-8-19,80.9,65.0,56.5,62.5,48.7,40.0,89,58,25,29.95,29.78,14,0,14,0.24
2013-8-20,83.0,68.7,50.7,54.0,46.8,40.0,90,51,24,29.98,29.70,12,0,12,0.00
2013-8-21,80.0,64.3,57.1,55.6,49.0,41.8,90,61,28,30.02,29.72,13,0,16,0.21
2013-8-22,76.5,65.6,54.0,60.0,50.2,43.4,84,59,32,30.02,29.80,12,0,12,0.01
2013-8-23,76.0,64.2,53.0,53.9,49.8,40.6,87,62,36,29.92,29.75,16,1,16,0.01
2013-8-24,67.3,59.0,51.2,56.6,50.8,41.4,91,75,57,29.97,29.81,17,0,17,0.13
2013-8-25,62.6,58.2,53.8,57.2,53.1,48.9,92,83,70,30.03,29.90,8,0,8,0.15
2013-8-26,67.5,59.1,55.2,59.2,55.7,52.7,93,89,71,30.05,29.92,14,1,14,0.68
2013-8-27,63.3,58.6,54.4,57.1,53.8,50.0,93,85,68,30.01,29.90,14,1,17,0.38
2013-8-28,78.5,65.7,55.8,57.1,51.6,41.5,89,63,30,29.94,29.82,13,0,13,0.00
2013-8-29,78.1,66.5,52.8,58.5,53.8,49.6,90,66,41,30.00,29.87,10,0,10,0.00
2013-8-30,75.5,65.3,58.6,58.8,57.2,54.8,92,76,51,29.99,29.84,8,0,8,0.01
2013-8-31,69.5,60.6,57.2,60.4,57.4,54.3,93,90,61,29.97,29.82,10,0,13,0.33
2013-9-1,75.8,64.5,55.3,60.5,55.5,50.0,94,75,44,29.94,29.78,14,1,14,0.00
2013-9-2,81.6,67.6,52.2,59.9,50.7,42.2,93,60,26,29.96,29.76,18,0,18,0.00
2013-9-3,79.0,69.6,58.6,53.2,49.6,45.9,79,50,34,29.89,29.77,9,0,9,0.00
2013-9-4,80.0,66.8,55.8,55.6,51.2,44.9,87,60,31,29.94,29.80,17,0,17,0.00
2013-9-5,81.4,65.5,55.2,54.1,49.6,42.5,87,60,26,30.01,29.85,13,0,13,0.00
2013-9-6,81.3,65.5,53.3,51.6,47.3,42.2,80,55,27,29.98,29.77,13,0,13,0.00
2013-9-7,78.7,61.0,53.5,57.9,51.8,45.4,93,75,34,29.96,29.80,14,0,14,1.02
2013-9-8,63.9,58.1,54.3,57.2,54.3,52.0,93,87,71,29.91,29.77,9,0,10,0.13
2013-9-9,63.1,57.4,53.3,56.0,53.6,51.3,94,87,73,29.82,29.72,10,0,10,0.12
2013-9-10,62.2,54.8,51.9,54.8,52.0,49.9,94,90,70,29.87,29.72,7,0,7,0.40
2013-9-11,64.4,54.0,46.2,55.1,50.7,44.3,94,89,60,30.02,29.85,13,1,13,0.21
2013-9-12,69.3,56.3,43.8,54.1,45.8,42.0,94,72,39,30.05,29.85,10,0,10,0.00
2013-9-13,72.7,59.2,45.7,52.6,46.3,41.0,94,66,32,29.90,29.67,10,0,10,0.00
2013-9-14,71.3,59.2,46.3,52.6,47.4,44.2,93,68,40,29.80,29.70,11,0,11,0.00
2013-9-15,73.4,61.6,47.0,51.8,47.1,42.1,92,62,35,29.86,29.76,9,0,9,0.00
2013-9-16,75.1,66.8,58.9,52.4,48.0,45.0,69,52,37,29.90,29.73,13,1,13,0.00
2013-9-17,76.9,66.8,55.6,53.2,47.2,42.4,74,51,31,29.79,29.58,19,2,20,0.00
2013-9-18,76.5,63.8,48.1,45.8,35.0,25.1,58,37,17,29.76,29.58,22,2,24,0.00
2013-9-19,73.2,60.1,41.5,40.4,33.9,28.3,77,42,23,29.92,29.72,13,0,13,0.00
2013-9-20,77.4,65.1,51.6,38.2,30.0,21.6,60,29,15,29.83,29.68,20,2,20,0.00
2013-9-21,74.4,63.0,53.4,47.0,42.6,37.5,67,49,28,29.84,29.55,25,3,25,0.00
2013-9-22,60.3,54.7,41.1,45.3,31.4,14.8,71,44,17,29.84,29.45,25,3,27,0.00
2013-9-23,66.8,51.1,35.5,36.9,30.3,24.4,81,50,21,30.04,29.84,5,0,8,0.00
2013-9-24,73.7,59.7,40.5,32.4,26.5,17.4,64,31,14,30.04,29.72,18,2,18,0.00
2013-9-25,69.0,57.9,49.1,34.6,29.5,26.2,48,35,21,29.73,29.50,28,5,28,0.00
2013-9-26,63.6,53.7,43.7,36.7,28.1,12.5,62,39,20,29.69,29.46,33,7,33,0.00
2013-9-27,54.4,44.2,32.0,23.9,20.3,11.9,70,41,20,30.16,29.69,13,1,13,0.00
2013-9-28,60.3,46.9,30.3,27.4,21.6,15.8,74,39,22,30.26,30.11,12,0,14,0.00
2013-9-29,72.3,53.9,32.4,26.6,21.2,15.7,63,32,12,30.27,29.94,17,1,17,0.00
2013-9-30,71.3,56.8,41.3,24.5,19.7,15.6,41,25,14,30.02,29.83,18,1,18,0.00
2013-10-1,72.2,56.3,36.4,25.7,21.3,17.1,57,28,14,30.03,29.82,19,1,19,0.00
2013-10-2,70.0,56.6,45.6,35.7,27.0,22.4,48,34,18,29.94,29.76,20,3,20,0.00
2013-10-3,66.5,54.3,45.4,37.8,26.7,14.2,62,36,17,29.79,29.61,28,5,28,0.00
2013-10-4,50.9,41.4,29.2,19.1,14.5,9.2,55,34,20,30.27,29.78,10,0,10,0.00
2013-10-5,53.0,42.2,33.6,18.9,15.3,6.6,51,34,21,30.41,30.23,12,1,13,2.11
2013-10-6,62.8,51.4,32.6,22.1,15.6,9.5,45,25,17,30.35,30.05,19,2,19,0.00
2013-10-7,69.8,56.9,40.0,25.3,19.9,9.7,44,24,11,30.12,29.86,11,0,11,0.00
2013-10-8,66.2,53.1,38.1,24.2,18.0,13.2,45,26,15,29.92,29.66,25,2,25,0.00
2013-10-9,58.2,49.3,40.8,36.1,26.9,20.4,82,43,24,29.68,29.56,27,3,27,0.02
2013-10-10,45.9,34.4,31.2,35.2,31.6,25.2,93,90,53,30.12,29.56,21,1,24,98.94
2013-10-11,51.5,40.0,30.8,38.6,32.0,28.2,93,75,42,30.15,30.00,8,0,8,98.94
2013-10-12,61.2,45.9,31.2,33.1,28.4,20.6,88,54,22,30.14,29.90,14,0,14,0.00
2013-10-13,58.0,46.4,34.8,32.5,28.0,21.4,75,51,29,29.98,29.83,22,3,22,0.00
2013-10-14,54.6,41.4,29.0,30.3,25.9,19.1,86,58,26,30.17,29.96,10,0,10,0.00
2013-10-15,51.0,41.4,30.9,28.7,25.6,20.7,83,55,31,30.11,29.98,12,1,14,0.00
2013-10-16,51.9,40.3,27.7,26.8,23.8,20.2,80,54,31,30.24,30.06,11,1,11,0.00
2013-10-17,58.9,43.1,24.9,26.7,18.9,10.4,85,45,17,30.31,29.92,11,0,11,0.00
2013-10-18,56.2,41.9,26.8,24.0,19.0,15.4,73,43,22,30.31,29.97,8,0,8,0.00
2013-10-19,60.7,42.1,25.6,23.4,17.2,9.9,76,43,15,30.36,29.98,8,0,8,0.00
2013-10-20,62.0,46.2,27.8,20.1,16.0,8.6,64,34,13,30.21,29.89,14,1,14,0.00
2013-10-21,58.8,46.7,32.7,21.5,17.9,13.8,58,33,19,30.22,29.92,12,1,12,0.00
2013-10-22,60.4,51.7,42.8,20.4,16.3,12.2,31,24,20,30.23,30.01,13,2,13,0.00
2013-10-23,62.5,53.2,45.1,21.6,17.4,14.1,30,24,19,30.06,29.92,14,1,14,0.00
2013-10-24,62.2,53.7,43.8,27.9,22.1,17.6,49,30,22,30.02,29.89,13,1,13,0.00
2013-10-25,58.9,48.2,35.2,35.4,31.1,27.7,80,53,33,30.26,29.96,18,1,18,0.00
2013-10-26,60.7,46.8,30.6,37.3,27.2,20.1,90,53,21,30.39,30.04,12,1,12,0.00
2013-10-27,64.2,51.4,34.0,31.4,25.1,19.8,72,39,19,30.15,29.61,20,2,20,0.00
2013-10-28,53.7,47.2,41.8,29.1,25.1,21.7,57,42,32,29.70,29.54,34,6,34,0.00
2013-10-29,46.3,38.0,31.7,34.7,25.4,16.5,82,62,32,30.00,29.66,26,3,26,0.00
2013-10-30,43.1,34.8,28.0,31.6,25.4,22.0,91,69,47,30.16,29.94,13,0,13,25.45
2013-10-31,47.2,34.6,24.6,28.5,23.5,19.1,90,66,36,30.27,30.11,7,0,11,0.00
2013-11-1,55.6,40.0,24.4,25.1,20.6,16.0,83,50,21,30.38,30.19,13,1,13,0.00
2013-11-2,59.8,49.4,37.8,24.7,19.1,11.1,51,30,21,30.22,29.80,12,1,16,0.00
2013-11-3,57.7,45.1,30.8,22.3,16.8,10.5,57,33,19,29.88,29.70,21,3,22,0.00
2013-11-4,51.5,38.6,26.8,25.9,20.5,16.8,79,49,31,29.94,29.76,21,1,21,0.00
2013-11-5,41.0,31.4,20.4,26.0,17.2,9.2,86,57,36,30.45,29.93,13,1,13,0.00
2013-11-6,50.3,36.4,19.4,12.0,6.4,-1.3,67,32,13,30.61,30.35,13,1,13,0.00
2013-11-7,53.5,41.7,29.9,13.6,8.1,1.4,49,26,19,30.40,30.18,18,1,18,0.00
2013-11-8,60.9,45.9,28.1,12.7,8.6,5.1,43,23,12,30.35,30.00,10,1,14,0.00
2013-11-9,60.0,43.4,27.2,24.3,16.5,6.1,65,36,17,30.35,30.04,11,0,11,0.00
2013-11-10,60.4,41.8,27.5,26.2,21.1,18.1,70,48,23,30.43,30.18,7,0,7,0.00
2013-11-11,58.2,50.1,30.8,21.7,18.1,12.5,66,29,21,30.33,30.12,18,2,18,0.00
2013-11-12,55.8,51.2,43.4,19.8,16.4,12.4,34,25,21,30.37,30.21,16,2,16,0.00
2013-11-13,61.2,48.6,31.7,26.0,20.9,14.7,64,35,23,30.26,30.03,10,0,10,0.00
2013-11-14,33.6,29.9,28.7,21.6,20.6,19.4,72,68,60,30.20,30.10,0,0,0,0.00
2013-11-15,34.9,34.7,34.5,31.1,30.0,28.0,87,83,76,29.65,29.65,3,0,6,0.00
2013-11-16,48.4,39.9,34.6,36.7,32.0,25.0,94,75,43,29.88,29.62,30,6,30,0.00
2013-11-17,52.4,38.3,28.7,33.5,30.9,24.7,92,76,43,30.26,29.86,16,2,16,0.00
2013-11-18,54.0,39.2,25.8,36.4,27.1,23.0,93,66,32,30.37,30.02,8,0,9,0.00
2013-11-19,53.8,41.9,33.3,36.4,32.6,29.1,87,71,42,30.11,29.84,18,1,19,0.00
2013-11-20,42.4,36.3,29.3,37.4,33.5,27.0,93,89,79,29.97,29.88,12,0,12,29.96
2013-11-21,43.3,38.5,33.1,38.6,35.8,30.8,94,90,78,30.04,29.88,12,2,12,0.00
2013-11-22,35.5,33.2,31.1,33.4,31.1,29.1,93,92,89,30.12,29.95,31,5,31,0.00
2013-11-23,33.7,31.2,29.3,32.1,29.3,27.3,94,92,92,30.19,30.06,25,4,25,0.00
2013-11-24,35.1,31.2,28.6,30.2,28.3,26.6,93,89,76,30.24,30.16,9,0,9,0.00
2013-11-25,44.3,33.0,22.6,35.2,23.9,18.6,92,72,37,30.47,30.21,10,0,10,0.00
2013-11-26,43.3,36.9,26.2,24.9,22.4,19.7,86,56,40,30.48,30.28,21,2,22,0.00
2013-11-27,37.2,33.6,30.5,28.0,26.1,24.5,80,74,64,30.33,30.17,19,2,19,0.00
2013-11-28,42.4,34.4,26.8,29.8,26.3,22.2,86,73,58,30.29,30.10,17,2,17,0.00
2013-11-29,46.4,33.5,23.7,31.0,25.4,20.2,89,74,46,30.39,30.25,12,1,12,0.00
2013-11-30,39.5,29.7,24.6,31.2,26.4,21.8,92,88,68,30.45,30.30,6,0,8,0.00
2013-12-1,49.4,31.5,25.8,35.3,25.4,19.2,93,81,32,30.50,30.28,5,0,5,0.00
2013-12-2,55.5,42.3,26.3,25.3,20.1,15.2,80,43,22,30.42,29.77,18,2,19,0.00
2013-12-3,47.5,39.9,33.6,27.2,22.3,17.1,67,50,34,29.80,29.46,31,6,31,0.00
2013-12-4,37.1,22.7,6.2,32.8,16.6,1.1,89,78,61,30.20,29.41,29,3,31,0.00
2013-12-5,25.0,15.7,5.2,14.4,4.0,-5.6,86,62,27,30.23,30.11,16,1,16,0.00
2013-12-6,29.9,16.5,3.4,6.7,1.0,-6.3,80,54,24,30.40,30.20,11,1,11,0.00
2013-12-7,24.3,20.8,15.4,21.8,15.5,6.1,90,80,57,30.20,29.89,31,4,31,0.00
2013-12-8,22.6,14.9,0.5,16.7,5.4,-6.1,88,67,35,30.41,29.99,14,1,14,0.00
2013-12-9,22.0,11.3,-6.8,1.9,-7.4,-19.0,83,47,18,30.83,30.35,14,1,14,0.00
2013-12-10,39.3,23.4,12.8,7.2,-5.8,-20.1,58,29,13,30.68,30.33,18,0,18,0.00
2013-12-11,31.8,27.5,12.6,2.2,-3.9,-10.3,54,25,18,30.60,30.34,21,3,21,0.00
2013-12-12,37.2,32.1,23.8,16.6,8.8,1.4,68,38,27,30.48,30.24,20,3,20,0.00
2013-12-13,42.0,30.3,21.8,23.3,16.8,9.0,88,60,29,30.36,30.16,12,0,12,0.00
2013-12-14,37.1,26.6,14.3,13.4,11.3,7.6,82,55,31,30.66,30.32,17,1,17,0.00
2013-12-15,51.8,35.3,17.9,17.5,13.0,8.2,71,43,21,30.68,30.40,8,0,8,0.00
2013-12-16,57.4,41.2,26.0,18.1,13.1,10.0,59,35,16,30.51,30.28,7,0,8,0.00
2013-12-17,50.9,42.8,27.8,19.3,14.6,8.7,67,33,24,30.40,30.22,17,1,17,0.00
2013-12-18,57.2,40.3,26.6,20.5,15.8,8.7,67,41,15,30.29,29.69,16,0,16,0.00
2013-12-19,43.8,36.7,28.4,27.5,21.6,17.3,89,56,35,29.79,29.61,22,2,22,0.00
2013-12-20,36.4,31.1,27.4,30.3,26.8,18.8,90,84,67,29.85,29.72,8,0,8,0.00
2013-12-21,36.7,30.2,20.8,22.9,17.6,7.7,82,60,44,30.06,29.79,20,1,20,0.00
2013-12-22,39.0,29.0,16.1,18.1,14.7,11.3,83,56,35,30.51,30.06,11,0,11,0.00
2013-12-23,42.5,31.8,19.4,20.9,18.3,14.5,83,58,40,30.58,30.43,13,0,13,0.00
2013-12-24,51.8,35.6,22.7,23.3,19.6,16.5,81,55,27,30.49,30.24,11,0,12,0.00
2013-12-25,42.8,35.1,26.2,19.8,4.7,-9.2,74,31,14,30.50,30.34,18,1,18,0.00
2013-12-26,49.3,39.2,29.9,4.0,-3.7,-9.3,32,16,9,30.46,30.27,24,1,24,0.00
2013-12-27,47.0,39.4,27.2,15.9,8.2,-4.5,57,28,16,30.45,30.20,13,0,13,0.00
2013-12-28,45.0,35.2,25.5,17.5,14.3,11.3,64,44,27,30.27,30.00,14,0,14,0.00
2013-12-29,36.5,28.3,15.9,16.4,10.6,-2.2,69,48,31,30.44,30.02,12,0,12,0.00
2013-12-30,52.7,30.4,15.1,14.8,8.4,-2.5,70,45,14,30.58,30.33,7,0,7,0.00
2013-12-31,54.7,36.0,20.8,17.3,13.4,10.0,73,44,18,30.50,30.13,7,0,12,0.00
2014-1-1,49.0,39.0,24.7,18.7,10.9,-2.2,64,33,16,30.41,30.10,13,0,13,0.00
2014-1-2,54.3,40.7,25.5,7.3,0.0,-7.3,41,20,9,30.31,30.12,13,0,13,0.00